Time;durP1;ratioP1;P1;durP2;ratioP2;P2;SDS_P1;SDS_P2;PMS_P1;PMS_P2;Temp;Humidity;BMP_temperature;BMP_pressure;BME280_temperature;BME280_humidity;BME280_pressure;Samples;Min_cycle;Max_cycle;Signal;HPM_P1;HPM_P2
2022/03/31 00:02:50;;;;;;;29.40;12.98;;;;;;;5.17;96.39;99333.79;1710449;84;21248;-79
2022/03/31 00:05:56;;;;;;;43.65;13.78;;;;;;;5.12;96.82;99332.92;1712167;83;21276;-79
2022/03/31 00:09:01;;;;;;;30.80;12.80;;;;;;;5.09;97.60;99340.90;1711547;84;21196;-80
2022/03/31 00:12:08;;;;;;;34.38;13.78;;;;;;;5.07;98.26;99336.64;1711368;84;21294;-79
2022/03/31 00:15:14;;;;;;;32.30;13.28;;;;;;;5.05;98.93;99325.97;1713202;83;21275;-80
2022/03/31 00:18:21;;;;;;;42.93;14.10;;;;;;;5.05;99.70;99331.91;1713738;83;21205;-79
2022/03/31 00:21:20;;;;;;;30.32;13.32;;;;;;;5.06;100.00;99330.88;1710600;84;21263;-79
2022/03/31 00:24:26;;;;;;;29.70;13.83;;;;;;;5.07;100.00;99323.09;1711651;84;21830;-78
2022/03/31 00:27:32;;;;;;;44.63;14.85;;;;;;;5.09;100.00;99336.84;1713797;83;21736;-79
2022/03/31 00:30:39;;;;;;;40.67;16.37;;;;;;;5.14;100.00;99340.41;1712599;83;21220;-80
2022/03/31 00:33:45;;;;;;;36.50;15.75;;;;;;;5.19;100.00;99347.53;1712550;83;21232;-79
2022/03/31 00:36:52;;;;;;;39.27;14.80;;;;;;;5.26;100.00;99349.06;1713981;83;21181;-79
2022/03/31 00:39:58;;;;;;;40.98;15.88;;;;;;;5.30;100.00;99358.06;1713784;83;21197;-79
2022/03/31 00:43:08;;;;;;;36.17;16.37;;;;;;;5.34;100.00;99349.09;1713170;83;21252;-79
2022/03/31 00:46:13;;;;;;;34.20;14.98;;;;;;;5.38;100.00;99346.39;1712439;83;22047;-79
2022/03/31 00:49:24;;;;;;;42.20;16.50;;;;;;;5.43;100.00;99344.03;1711771;84;21228;-79
2022/03/31 00:52:26;;;;;;;49.48;16.32;;;;;;;5.46;100.00;99353.20;1711739;84;21378;-79
2022/03/31 00:55:26;;;;;;;41.53;14.83;;;;;;;5.49;100.00;99347.42;1712458;83;21189;-79
2022/03/31 00:58:17;;;;;;;43.78;16.40;;;;;;;5.56;100.00;99347.11;1713806;83;21783;-79
2022/03/31 01:01:23;;;;;;;48.45;15.80;;;;;;;5.60;100.00;99355.25;1686537;83;21530;-80
2022/03/31 01:04:29;;;;;;;43.25;15.70;;;;;;;5.64;100.00;99343.53;1712584;83;21253;-80
2022/03/31 01:07:35;;;;;;;41.23;15.20;;;;;;;5.67;100.00;99349.98;1713832;83;21209;-80
2022/03/31 01:10:42;;;;;;;46.23;16.95;;;;;;;5.69;100.00;99339.80;1711652;84;21196;-80
2022/03/31 01:13:48;;;;;;;40.63;14.65;;;;;;;5.70;100.00;99346.11;1710826;81;21206;-80
2022/03/31 01:16:48;;;;;;;33.98;14.23;;;;;;;5.69;100.00;99345.23;1709754;84;21248;-80
2022/03/31 01:19:54;;;;;;;47.03;15.88;;;;;;;5.70;100.00;99346.95;1709987;84;21249;-79
2022/03/31 01:23:00;;;;;;;47.78;15.58;;;;;;;5.70;100.00;99353.73;1709942;84;21748;-79
2022/03/31 01:26:13;;;;;;;44.15;14.63;;;;;;;5.71;100.00;99347.28;1709963;84;21248;-80
2022/03/31 01:29:17;;;;;;;36.33;14.58;;;;;;;5.72;100.00;99346.77;1681775;85;21204;-80
2022/03/31 01:32:22;;;;;;;45.23;14.70;;;;;;;5.71;100.00;99355.42;1681678;85;21787;-80
2022/03/31 01:35:27;;;;;;;40.05;14.50;;;;;;;5.71;100.00;99355.94;1681757;85;21181;-80
2022/03/31 01:38:33;;;;;;;38.85;15.13;;;;;;;5.71;100.00;99354.06;1681790;85;21241;-80
2022/03/31 01:41:39;;;;;;;39.85;15.60;;;;;;;5.72;100.00;99359.83;1683185;82;21246;-79
2022/03/31 01:44:45;;;;;;;40.48;16.35;;;;;;;5.74;100.00;99356.94;1745645;82;21173;-79
2022/03/31 01:47:51;;;;;;;41.13;15.72;;;;;;;5.75;100.00;99352.72;1746171;82;21581;-80
2022/03/31 01:50:57;;;;;;;43.38;14.80;;;;;;;5.77;100.00;99356.09;1750154;82;21225;-79
2022/03/31 01:54:04;;;;;;;33.50;14.68;;;;;;;5.77;100.00;99353.37;1751506;82;21214;-79
2022/03/31 01:57:09;;;;;;;38.20;15.83;;;;;;;5.79;100.00;99355.44;1752008;82;21260;-80
2022/03/31 02:00:17;;;;;;;34.67;15.88;;;;;;;5.81;100.00;99360.69;1751972;82;21182;-79
2022/03/31 02:03:23;;;;;;;43.92;16.90;;;;;;;5.81;100.00;99358.81;1750843;82;22535;-79
2022/03/31 02:06:30;;;;;;;30.95;14.38;;;;;;;5.85;100.00;99362.89;1792560;80;21185;-79
2022/03/31 02:09:35;;;;;;;34.15;15.10;;;;;;;5.89;100.00;99360.70;1790775;80;21228;-80
2022/03/31 02:12:41;;;;;;;41.53;15.10;;;;;;;5.95;100.00;99361.40;1791172;80;22474;-79
2022/03/31 02:15:47;;;;;;;40.17;16.55;;;;;;;6.02;100.00;99358.84;1790743;80;21257;-79
2022/03/31 02:18:55;;;;;;;41.40;17.23;;;;;;;6.04;100.00;99352.75;1792333;80;22463;-79
2022/03/31 02:22:01;;;;;;;48.80;20.57;;;;;;;6.08;100.00;99350.03;1790883;79;21185;-79
2022/03/31 02:25:08;;;;;;;49.73;18.75;;;;;;;6.10;100.00;99354.77;1791378;80;21764;-79
2022/03/31 02:28:15;;;;;;;52.10;18.73;;;;;;;6.11;100.00;99357.81;1792484;80;21181;-79
2022/03/31 02:31:20;;;;;;;43.98;17.62;;;;;;;6.10;100.00;99368.34;1792176;80;21256;-80
2022/03/31 02:34:26;;;;;;;35.28;16.95;;;;;;;6.08;100.00;99362.25;1790726;79;21220;-79
2022/03/31 02:37:34;;;;;;;38.73;17.15;;;;;;;6.07;100.00;99363.25;1792223;80;21157;-79
2022/03/31 02:40:42;;;;;;;51.48;17.40;;;;;;;6.05;100.00;99363.42;1790758;80;21213;-79
2022/03/31 02:43:47;;;;;;;40.83;18.73;;;;;;;6.02;100.00;99359.72;1792062;80;21170;-80
2022/03/31 02:46:53;;;;;;;43.87;19.42;;;;;;;6.02;100.00;99358.36;1791649;80;21239;-79
2022/03/31 02:49:58;;;;;;;41.40;17.65;;;;;;;5.99;100.00;99354.61;1793305;79;21225;-79
2022/03/31 02:56:29;;;;;;;38.38;18.87;;;;;;;5.99;100.00;99353.77;1797891;80;21716;-80
2022/03/31 02:59:35;;;;;;;43.33;18.02;;;;;;;5.99;100.00;99361.91;1797765;80;21182;-80
2022/03/31 03:02:41;;;;;;;47.53;19.48;;;;;;;5.97;100.00;99347.64;1796917;80;21236;-79
2022/03/31 03:05:47;;;;;;;49.60;18.87;;;;;;;5.96;100.00;99356.30;1796972;80;21177;-79
2022/03/31 03:08:53;;;;;;;42.38;19.10;;;;;;;5.95;100.00;99356.48;1797994;80;21209;-80
2022/03/31 03:11:58;;;;;;;51.05;18.67;;;;;;;5.98;100.00;99358.87;1797937;80;21494;-79
2022/03/31 03:15:05;;;;;;;50.80;18.77;;;;;;;6.01;100.00;99358.50;1796478;79;21215;-80
2022/03/31 03:18:13;;;;;;;40.43;18.45;;;;;;;6.04;100.00;99359.53;1797137;80;21189;-80
2022/03/31 03:21:19;;;;;;;43.30;18.67;;;;;;;6.06;100.00;99357.48;1798090;80;21192;-79
2022/03/31 03:24:26;;;;;;;52.98;18.57;;;;;;;6.09;100.00;99358.52;1797918;80;21443;-80
2022/03/31 03:27:33;;;;;;;40.08;17.50;;;;;;;6.11;100.00;99358.66;1797868;80;21475;-80
2022/03/31 03:30:39;;;;;;;36.42;16.65;;;;;;;6.16;100.00;99364.94;1797907;80;21228;-80
2022/03/31 03:33:47;;;;;;;41.02;18.77;;;;;;;6.18;100.00;99365.63;1796666;80;21822;-80
2022/03/31 03:36:52;;;;;;;45.83;18.75;;;;;;;6.21;100.00;99359.88;1796368;80;21233;-80
2022/03/31 03:40:01;;;;;;;55.23;20.68;;;;;;;6.23;100.00;99352.39;1797905;80;21181;-80
2022/03/31 03:43:07;;;;;;;34.30;18.27;;;;;;;6.24;100.00;99351.88;1797981;80;21184;-80
2022/03/31 03:46:13;;;;;;;41.55;17.95;;;;;;;6.25;100.00;99342.19;1796961;80;21177;-80
2022/03/31 03:49:19;;;;;;;36.58;18.15;;;;;;;6.27;100.00;99346.11;1796403;80;21197;-79
2022/03/31 03:52:25;;;;;;;44.00;18.30;;;;;;;6.28;100.00;99336.42;1794925;79;21264;-79
2022/03/31 03:55:29;;;;;;;44.95;18.45;;;;;;;6.29;100.00;99340.83;1797639;80;21213;-79
2022/03/31 03:58:35;;;;;;;29.90;16.85;;;;;;;6.29;100.00;99339.47;1797921;80;21173;-79
2022/03/31 04:01:41;;;;;;;38.78;17.65;;;;;;;6.33;100.00;99346.26;1797888;80;21248;-79
2022/03/31 04:04:47;;;;;;;36.55;17.57;;;;;;;6.37;100.00;99347.61;1797843;80;21217;-80
2022/03/31 04:07:53;;;;;;;39.20;16.75;;;;;;;6.42;100.00;99349.81;1796377;79;21259;-80
2022/03/31 04:10:59;;;;;;;42.05;18.75;;;;;;;6.46;100.00;99343.02;1797903;80;21161;-80
2022/03/31 04:14:06;;;;;;;37.03;18.12;;;;;;;6.49;100.00;99345.36;1797945;80;21223;-79
2022/03/31 04:17:12;;;;;;;40.00;17.65;;;;;;;6.51;100.00;99340.63;1796488;79;21212;-79
2022/03/31 04:20:19;;;;;;;36.03;18.98;;;;;;;6.53;100.00;99347.23;1797930;80;21205;-79
2022/03/31 04:23:24;;;;;;;47.70;18.12;;;;;;;6.56;100.00;99344.17;1797918;80;21249;-79
2022/03/31 04:26:30;;;;;;;40.17;19.57;;;;;;;6.58;100.00;99336.17;1797079;80;21173;-80
2022/03/31 04:29:36;;;;;;;40.73;19.85;;;;;;;6.61;100.00;99322.25;1797868;80;21174;-80
2022/03/31 04:32:35;;;;;;;43.60;17.67;;;;;;;6.65;100.00;99326.83;1797974;80;21236;-80
2022/03/31 04:35:29;;;;;;;45.40;18.27;;;;;;;6.70;100.00;99335.81;1797839;80;21165;-80
2022/03/31 04:38:15;;;;;;;41.13;18.37;;;;;;;6.77;100.00;99330.00;1796509;79;21196;-79
2022/03/31 04:41:07;;;;;;;38.70;18.70;;;;;;;6.81;100.00;99326.75;1797992;80;21220;-80
2022/03/31 04:44:14;;;;;;;43.30;17.50;;;;;;;6.87;100.00;99327.94;1788281;79;21172;-80
2022/03/31 04:47:20;;;;;;;41.60;18.05;;;;;;;6.93;100.00;99334.54;1761467;81;21168;-79
2022/03/31 04:50:25;;;;;;;34.58;17.35;;;;;;;6.98;100.00;99344.38;1760997;81;21247;-79
2022/03/31 04:53:32;;;;;;;36.75;16.93;;;;;;;7.02;100.00;99335.69;1761485;80;21203;-80
2022/03/31 04:56:39;;;;;;;39.35;16.57;;;;;;;7.06;100.00;99343.83;1761839;81;21199;-80
2022/03/31 04:59:45;;;;;;;35.20;16.35;;;;;;;7.11;100.00;99340.58;1766417;81;21181;-80
2022/03/31 05:02:50;;;;;;;33.05;16.20;;;;;;;7.17;100.00;99350.73;1768746;81;21226;-80
2022/03/31 05:05:56;;;;;;;39.33;15.70;;;;;;;7.24;100.00;99361.22;1736162;82;21181;-80
2022/03/31 05:09:02;;;;;;;34.95;16.23;;;;;;;7.32;100.00;99355.74;1768922;80;21753;-79
2022/03/31 05:12:08;;;;;;;35.38;15.80;;;;;;;7.42;100.00;99365.03;1770659;81;21190;-79
2022/03/31 05:15:13;;;;;;;42.17;16.00;;;;;;;7.52;100.00;99352.56;1770567;81;21741;-79
2022/03/31 05:18:19;;;;;;;31.68;14.18;;;;;;;7.60;100.00;99349.28;1769226;81;21720;-79
2022/03/31 05:21:25;;;;;;;34.95;14.23;;;;;;;7.69;100.00;99360.96;1736410;82;21823;-80
2022/03/31 05:24:31;;;;;;;22.98;13.18;;;;;;;7.78;100.00;99361.75;1770596;81;21202;-81
2022/03/31 05:27:36;;;;;;;32.33;12.47;;;;;;;7.87;100.00;99371.55;1769519;81;21190;-80
2022/03/31 05:30:43;;;;;;;22.55;13.38;;;;;;;7.98;99.63;99376.56;1794227;79;21712;-80
2022/03/31 05:33:50;;;;;;;38.83;14.33;;;;;;;8.07;98.69;99369.18;1796369;80;21736;-81
2022/03/31 05:36:57;;;;;;;37.80;14.25;;;;;;;8.17;97.65;99373.33;1796408;80;21196;-79
2022/03/31 05:39:55;;;;;;;34.58;13.18;;;;;;;8.27;96.64;99375.80;1796464;80;21175;-79
2022/03/31 05:43:01;;;;;;;30.37;12.43;;;;;;;8.38;95.75;99380.86;1796862;80;21664;-79
2022/03/31 05:46:09;;;;;;;18.77;9.80;;;;;;;8.47;94.65;99384.36;1796707;80;21158;-79
2022/03/31 05:49:16;;;;;;;25.50;10.48;;;;;;;8.59;93.70;99384.73;1796767;80;21839;-79
2022/03/31 05:52:20;;;;;;;19.12;10.08;;;;;;;8.71;92.31;99375.08;1796613;80;21177;-79
2022/03/31 05:55:28;;;;;;;21.00;9.05;;;;;;;8.84;90.79;99373.88;1796508;80;21201;-80
2022/03/31 05:58:33;;;;;;;27.75;9.83;;;;;;;8.99;89.84;99368.94;1771617;81;21217;-80
2022/03/31 06:01:39;;;;;;;29.20;9.93;;;;;;;9.14;88.17;99373.89;1763722;81;21237;-80
2022/03/31 06:04:46;;;;;;;26.70;8.98;;;;;;;9.29;86.59;99371.14;1773596;80;21759;-80
2022/03/31 06:07:53;;;;;;;21.27;9.83;;;;;;;9.41;84.32;99365.00;1745032;81;21240;-80
2022/03/31 06:10:59;;;;;;;28.92;9.83;;;;;;;9.55;82.52;99355.58;1746822;80;22119;-80
2022/03/31 06:14:05;;;;;;;27.45;11.28;;;;;;;9.66;81.26;99362.76;1735733;81;21192;-80
2022/03/31 06:17:11;;;;;;;27.30;9.33;;;;;;;9.78;80.09;99362.23;1742410;79;21231;-80
2022/03/31 06:20:19;;;;;;;36.10;11.35;;;;;;;9.86;79.00;99359.38;1764030;79;21785;-80
2022/03/31 06:23:26;;;;;;;23.62;9.58;;;;;;;9.96;78.29;99359.90;1770393;81;21797;-81
2022/03/31 06:26:32;;;;;;;36.00;11.25;;;;;;;10.07;77.61;99378.52;1765182;81;21230;-80
2022/03/31 06:29:40;;;;;;;32.48;10.30;;;;;;;10.18;76.67;99363.48;1785906;79;21177;-80
2022/03/31 06:32:45;;;;;;;21.77;8.55;;;;;;;10.29;76.00;99361.59;1741062;79;21269;-80
2022/03/31 06:35:51;;;;;;;28.38;9.08;;;;;;;10.43;75.48;99354.34;1760255;81;21755;-80
2022/03/31 06:38:56;;;;;;;19.37;7.67;;;;;;;10.56;74.66;99340.78;1751366;81;21771;-79
2022/03/31 06:42:04;;;;;;;25.48;8.28;;;;;;;10.70;73.75;99345.82;1796858;79;21689;-80
2022/03/31 06:45:12;;;;;;;19.82;7.92;;;;;;;10.84;72.75;99357.17;1765629;79;21197;-80
2022/03/31 06:48:17;;;;;;;27.17;8.43;;;;;;;11.00;72.18;99372.40;1741397;80;21195;-81
2022/03/31 06:51:26;;;;;;;18.00;7.35;;;;;;;11.13;70.93;99373.84;1748164;81;21613;-80
2022/03/31 06:54:32;;;;;;;21.20;8.38;;;;;;;11.28;70.72;99379.18;1785332;79;21261;-80
2022/03/31 06:57:39;;;;;;;24.82;8.25;;;;;;;11.42;69.62;99372.70;1772319;80;21303;-80
2022/03/31 07:00:44;;;;;;;33.92;8.20;;;;;;;11.56;69.13;99370.03;1761039;79;21195;-80
2022/03/31 07:03:51;;;;;;;19.27;7.47;;;;;;;11.69;68.24;99368.17;1765631;79;21189;-80
2022/03/31 07:06:57;;;;;;;21.93;6.85;;;;;;;11.84;67.27;99368.03;1786865;79;21196;-80
2022/03/31 07:10:04;;;;;;;26.57;8.00;;;;;;;12.00;66.72;99364.08;1797983;79;21224;-80
2022/03/31 07:13:13;;;;;;;19.15;7.10;;;;;;;12.16;65.32;99366.93;1744456;79;21262;-80
2022/03/31 07:16:20;;;;;;;20.90;7.90;;;;;;;12.34;64.93;99356.19;1754303;81;21717;-80
2022/03/31 07:19:27;;;;;;;29.67;8.08;;;;;;;12.52;63.78;99364.62;1761340;80;21257;-80
2022/03/31 07:22:32;;;;;;;21.05;7.12;;;;;;;12.74;63.66;99364.38;1728405;83;21234;-80
2022/03/31 07:25:39;;;;;;;23.70;8.23;;;;;;;12.93;61.93;99365.39;1729744;83;21789;-81
2022/03/31 07:28:45;;;;;;;17.12;6.95;;;;;;;13.08;60.78;99365.14;1751780;81;21153;-80
2022/03/31 07:31:52;;;;;;;20.72;6.12;;;;;;;13.22;60.19;99363.58;1766026;80;21299;-80
2022/03/31 07:34:58;;;;;;;29.20;7.33;;;;;;;13.40;60.59;99368.87;1764784;80;21202;-80
2022/03/31 07:38:07;;;;;;;27.13;7.87;;;;;;;13.63;60.26;99371.09;1749360;79;21208;-80
2022/03/31 07:41:12;;;;;;;21.62;8.13;;;;;;;13.91;58.97;99363.33;1760305;79;21133;-80
2022/03/31 07:44:20;;;;;;;24.52;7.50;;;;;;;14.20;57.49;99356.89;1749375;79;21281;-80
2022/03/31 07:47:26;;;;;;;21.33;7.05;;;;;;;14.42;57.21;99349.95;1741261;82;21265;-80
2022/03/31 07:50:34;;;;;;;23.80;7.30;;;;;;;14.68;56.97;99346.17;1770197;79;21181;-81
2022/03/31 07:53:39;;;;;;;25.32;7.47;;;;;;;14.97;55.82;99344.59;1725578;83;21197;-80
2022/03/31 07:56:45;;;;;;;20.85;6.55;;;;;;;15.30;55.19;99344.75;1725620;82;21219;-80
2022/03/31 07:59:52;;;;;;;23.45;7.15;;;;;;;15.60;53.35;99335.98;1726455;83;21246;-81
2022/03/31 08:03:01;;;;;;;26.17;6.67;;;;;;;15.82;52.38;99331.37;1728057;83;21667;-81
2022/03/31 08:06:08;;;;;;;21.62;6.72;;;;;;;15.90;50.54;99334.32;1754973;81;21190;-81
2022/03/31 08:09:17;;;;;;;16.80;8.08;;;;;;;15.81;50.86;99331.08;1760564;81;21211;-80
2022/03/31 08:12:22;;;;;;;25.08;8.43;;;;;;;15.74;50.63;99329.78;1760689;81;21202;-80
2022/03/31 08:15:29;;;;;;;20.65;8.18;;;;;;;15.82;50.79;99335.52;1760996;81;21848;-81
2022/03/31 08:18:36;;;;;;;25.27;7.15;;;;;;;15.97;51.09;99331.78;1759625;80;21233;-81
2022/03/31 08:21:42;;;;;;;22.52;6.58;;;;;;;16.21;51.30;99344.26;1731998;83;21250;-81
2022/03/31 08:24:49;;;;;;;23.62;6.30;;;;;;;16.38;50.76;99337.52;1732022;83;21259;-80
2022/03/31 08:27:54;;;;;;;20.27;6.78;;;;;;;16.48;49.90;99324.81;1731810;83;21794;-80
2022/03/31 08:31:03;;;;;;;26.00;6.55;;;;;;;16.59;50.04;99331.41;1730665;83;21207;-80
2022/03/31 08:34:10;;;;;;;31.60;8.90;;;;;;;16.75;49.99;99325.73;1745413;82;21204;-81
2022/03/31 08:37:16;;;;;;;20.77;6.72;;;;;;;16.91;50.16;99318.66;1751963;80;21506;-81
2022/03/31 08:40:22;;;;;;;21.90;5.72;;;;;;;17.06;49.51;99311.55;1764124;80;21389;-81
2022/03/31 08:43:29;;;;;;;21.30;7.22;;;;;;;17.20;49.12;99325.09;1762351;81;21798;-81
2022/03/31 08:46:37;;;;;;;28.85;6.67;;;;;;;17.30;49.05;99316.47;1761223;81;21254;-80
2022/03/31 08:49:44;;;;;;;21.02;6.80;;;;;;;17.37;48.26;99305.30;1767054;81;21214;-80
2022/03/31 08:52:49;;;;;;;18.12;6.78;;;;;;;17.44;47.91;99304.59;1754259;81;21792;-81
2022/03/31 08:55:55;;;;;;;21.77;6.17;;;;;;;17.55;47.99;99300.97;1753080;82;21237;-80
2022/03/31 08:59:00;;;;;;;19.32;6.37;;;;;;;17.64;47.83;99293.09;1740479;82;21190;-80
2022/03/31 09:02:08;;;;;;;35.05;7.65;;;;;;;17.73;47.28;99293.55;1740259;81;22005;-80
2022/03/31 09:05:13;;;;;;;20.30;6.00;;;;;;;17.81;46.43;99287.66;1746325;81;21212;-81
2022/03/31 09:08:23;;;;;;;18.80;5.15;;;;;;;17.87;45.41;99286.65;1759807;80;21226;-81
2022/03/31 09:11:37;;;;;;;24.35;6.05;;;;;;;17.91;43.74;99281.47;1759910;80;21254;-81
2022/03/31 09:14:45;;;;;;;18.12;5.53;;;;;;;17.89;44.39;99278.95;1760406;80;21167;-80
2022/03/31 09:17:51;;;;;;;26.15;6.67;;;;;;;17.92;44.27;99275.67;1768658;80;21774;-81
2022/03/31 09:20:59;;;;;;;24.00;5.90;;;;;;;17.94;43.53;99278.21;1747741;80;21230;-81
2022/03/31 09:24:05;;;;;;;33.55;6.60;;;;;;;18.00;43.26;99268.36;1762109;80;21226;-81
2022/03/31 09:27:11;;;;;;;24.45;6.17;;;;;;;18.14;42.64;99269.70;1729294;83;21951;-80
2022/03/31 09:30:18;;;;;;;30.55;6.30;;;;;;;18.26;43.13;99258.57;1732685;80;21242;-80
2022/03/31 09:33:44;;;;;;;30.08;6.05;;;;;;;18.39;42.91;99260.13;1776378;80;21217;-81
2022/03/31 09:36:56;;;;;;;39.55;6.08;;;;;;;18.55;42.89;99244.07;1769150;80;21208;-80
2022/03/31 09:40:03;;;;;;;26.40;5.22;;;;;;;18.76;42.00;99244.38;1773993;80;21323;-80
2022/03/31 09:43:17;;;;;;;30.80;7.25;;;;;;;18.86;41.33;99228.73;1775403;80;21181;-80
2022/03/31 09:46:29;;;;;;;17.37;5.30;;;;;;;18.95;40.80;99233.28;1776394;80;21375;-81
2022/03/31 09:49:35;;;;;;;20.72;5.33;;;;;;;19.01;40.85;99224.52;1772442;80;21792;-80
2022/03/31 09:52:41;;;;;;;21.90;5.50;;;;;;;19.03;39.80;99222.31;1742205;82;21165;-81
2022/03/31 09:55:49;;;;;;;27.02;5.53;;;;;;;19.02;40.86;99228.41;1742818;80;21268;-80
2022/03/31 09:58:55;;;;;;;24.05;6.00;;;;;;;19.07;38.28;99218.77;1748174;82;21214;-80
2022/03/31 10:02:01;;;;;;;34.10;7.10;;;;;;;19.05;38.21;99220.94;1753287;82;21198;-80
2022/03/31 10:05:07;;;;;;;28.00;6.05;;;;;;;19.03;37.35;99221.76;1754802;82;21236;-80
2022/03/31 10:08:12;;;;;;;21.27;5.50;;;;;;;19.05;37.96;99218.72;1752999;81;21240;-81
2022/03/31 10:11:23;;;;;;;18.55;5.70;;;;;;;19.10;38.34;99221.03;1744541;81;21755;-81
2022/03/31 10:14:43;;;;;;;31.40;6.33;;;;;;;19.11;37.21;99217.16;1762348;79;21166;-80
2022/03/31 10:17:50;;;;;;;24.92;5.67;;;;;;;19.09;37.67;99231.80;1754180;82;21737;-80
2022/03/31 10:21:04;;;;;;;30.65;6.12;;;;;;;19.05;38.02;99222.87;1753897;82;21280;-80
2022/03/31 10:27:35;;;;;;;30.25;6.40;;;;;;;19.07;37.52;99219.31;1761764;79;21211;-80
2022/03/31 10:30:32;;;;;;;29.35;6.05;;;;;;;19.12;36.88;99211.06;1771406;81;21222;-80
2022/03/31 10:33:46;;;;;;;44.45;7.70;;;;;;;19.19;37.02;99212.23;1770797;81;21772;-81
2022/03/31 10:36:56;;;;;;;44.42;6.15;;;;;;;19.27;37.37;99209.84;1770733;81;21828;-80
2022/03/31 10:40:05;;;;;;;34.20;7.05;;;;;;;19.36;35.95;99218.55;1770409;81;21812;-80
2022/03/31 10:43:11;;;;;;;38.73;7.20;;;;;;;19.41;35.98;99206.13;1770726;81;21198;-80
2022/03/31 10:46:32;;;;;;;35.05;6.97;;;;;;;19.47;35.77;99203.68;1770685;81;21249;-80
2022/03/31 10:49:39;;;;;;;30.32;7.62;;;;;;;19.52;35.81;99201.52;1732395;83;21188;-80
2022/03/31 10:52:50;;;;;;;34.58;5.72;;;;;;;19.54;35.50;99196.00;1730817;83;21766;-81
2022/03/31 10:55:57;;;;;;;36.68;5.90;;;;;;;19.51;34.51;99190.97;1731676;83;21361;-81
2022/03/31 10:59:06;;;;;;;36.85;7.10;;;;;;;19.49;35.00;99202.05;1732059;82;21290;-80
2022/03/31 11:02:26;;;;;;;31.63;6.63;;;;;;;19.42;33.59;99192.53;1731790;83;21191;-81
2022/03/31 11:05:34;;;;;;;33.92;6.47;;;;;;;19.42;33.59;99192.53;1730777;83;21743;-81
2022/03/31 11:08:54;;;;;;;33.45;6.67;;;;;;;19.32;34.18;99185.50;1733057;83;21160;-81
2022/03/31 11:12:03;;;;;;;38.05;6.60;;;;;;;19.27;35.83;99186.84;1761817;81;21534;-80
2022/03/31 11:15:12;;;;;;;39.27;7.15;;;;;;;19.24;36.99;99180.41;1758383;81;21125;-80
2022/03/31 11:18:19;;;;;;;41.42;6.80;;;;;;;19.25;36.71;99184.33;1758172;81;21216;-80
2022/03/31 11:21:27;;;;;;;39.42;6.85;;;;;;;19.24;36.27;99174.88;1756115;81;21206;-81
2022/03/31 11:24:32;;;;;;;43.40;7.17;;;;;;;19.17;36.12;99177.02;1756196;81;21206;-80
2022/03/31 11:27:43;;;;;;;38.70;7.42;;;;;;;19.11;36.78;99170.04;1752876;81;21782;-80
2022/03/31 11:30:55;;;;;;;31.27;6.08;;;;;;;19.09;37.48;99182.47;1749693;82;21714;-80
2022/03/31 11:34:30;;;;;;;41.92;7.37;;;;;;;19.05;37.97;99168.28;1749486;82;21307;-80
2022/03/31 11:37:36;;;;;;;39.50;7.12;;;;;;;19.04;38.20;99174.09;1749811;82;21185;-80
2022/03/31 11:40:49;;;;;;;35.65;6.67;;;;;;;19.10;38.33;99164.22;1749291;82;21223;-81
2022/03/31 11:43:56;;;;;;;46.33;7.47;;;;;;;19.11;37.74;99171.98;1732062;83;21215;-81
2022/03/31 11:47:02;;;;;;;49.58;7.08;;;;;;;19.10;38.33;99160.06;1732024;83;21457;-80
2022/03/31 11:50:08;;;;;;;44.27;6.97;;;;;;;19.17;37.46;99156.23;1732161;83;21211;-80
2022/03/31 11:53:33;;;;;;;46.15;8.25;;;;;;;19.20;37.86;99159.89;1731442;83;21195;-80
2022/03/31 11:56:38;;;;;;;38.75;7.20;;;;;;;19.21;37.47;99160.17;1720023;80;21267;-81
2022/03/31 11:59:45;;;;;;;44.70;8.15;;;;;;;19.15;37.56;99160.11;1796063;79;21169;-80
2022/03/31 12:03:11;;;;;;;56.42;8.18;;;;;;;19.05;36.79;99159.97;1804123;79;21204;-81
2022/03/31 12:06:18;;;;;;;51.60;8.95;;;;;;;18.94;37.30;99167.89;1805561;79;21184;-80
2022/03/31 12:09:18;;;;;;;55.55;8.35;;;;;;;18.91;36.99;99151.77;1804093;79;22325;-80
2022/03/31 12:12:13;;;;;;;52.27;7.78;;;;;;;18.93;37.18;99150.98;1804721;79;21268;-81
2022/03/31 12:15:00;;;;;;;47.58;8.00;;;;;;;18.93;37.21;99153.75;1804503;79;21193;-80
2022/03/31 12:18:07;;;;;;;44.65;8.98;;;;;;;18.89;37.06;99149.81;1806208;79;21775;-80
2022/03/31 12:20:58;;;;;;;73.80;9.75;;;;;;;18.84;36.94;99148.37;1805948;79;21181;-80
2022/03/31 12:23:51;;;;;;;55.33;8.63;;;;;;;18.84;36.67;99146.98;1804462;79;21331;-81
2022/03/31 12:26:42;;;;;;;56.13;8.28;;;;;;;18.82;36.44;99145.01;1800376;79;21213;-80
2022/03/31 12:29:37;;;;;;;53.87;9.00;;;;;;;18.83;36.71;99149.48;1771837;81;21139;-81
2022/03/31 12:32:24;;;;;;;64.07;8.30;;;;;;;18.85;37.22;99148.66;1773859;81;22368;-80
2022/03/31 12:35:23;;;;;;;59.60;8.43;;;;;;;18.89;37.05;99147.88;1773913;81;21331;-80
2022/03/31 12:38:49;;;;;;;64.55;9.55;;;;;;;18.96;36.71;99129.69;1776097;80;21313;-81
2022/03/31 12:42:01;;;;;;;48.63;9.25;;;;;;;19.01;36.61;99146.38;1782151;80;21220;-81
2022/03/31 12:45:15;;;;;;;49.50;9.83;;;;;;;19.03;36.71;99146.11;1782705;80;21183;-80
2022/03/31 12:48:15;;;;;;;48.48;9.13;;;;;;;19.03;37.13;99146.11;1758099;80;21195;-80
2022/03/31 12:51:22;;;;;;;62.20;10.50;;;;;;;19.01;36.73;99141.38;1760047;80;21718;-80
2022/03/31 12:54:46;;;;;;;78.47;11.75;;;;;;;18.94;36.15;99142.95;1781588;80;21389;-81
2022/03/31 12:57:55;;;;;;;78.07;11.40;;;;;;;18.88;36.23;99153.14;1781932;80;21215;-80
2022/03/31 13:01:00;;;;;;;59.65;10.35;;;;;;;18.84;36.71;99147.83;1757657;79;21171;-80
2022/03/31 13:04:07;;;;;;;54.90;9.13;;;;;;;18.85;36.97;99141.18;1760281;81;21214;-80
2022/03/31 13:07:27;;;;;;;61.63;10.05;;;;;;;18.84;37.25;99147.83;1760994;81;21239;-81
2022/03/31 13:10:32;;;;;;;65.65;9.83;;;;;;;18.79;37.12;99144.16;1759439;80;21192;-81
2022/03/31 13:13:39;;;;;;;63.17;10.53;;;;;;;18.72;37.48;99142.12;1759680;80;21254;-81
2022/03/31 13:16:44;;;;;;;74.55;9.55;;;;;;;18.63;37.65;99132.87;1759469;80;21180;-80
2022/03/31 13:19:37;;;;;;;58.00;9.98;;;;;;;18.56;37.41;99140.52;1761003;81;21176;-81
2022/03/31 13:22:44;;;;;;;59.45;8.73;;;;;;;18.52;37.63;99131.59;1761102;81;21767;-80
2022/03/31 13:25:46;;;;;;;68.00;9.63;;;;;;;18.48;37.35;99132.64;1761138;81;21759;-80
2022/03/31 13:28:52;;;;;;;80.45;9.40;;;;;;;18.42;37.49;99140.59;1760709;81;21798;-80
2022/03/31 13:31:59;;;;;;;64.10;9.90;;;;;;;18.35;37.65;99133.88;1761152;81;21215;-80
2022/03/31 13:35:05;;;;;;;72.90;9.53;;;;;;;18.30;37.85;99139.34;1759837;81;21734;-81
2022/03/31 13:38:12;;;;;;;65.20;10.23;;;;;;;18.25;37.68;99145.33;1760921;81;21188;-80
2022/03/31 13:41:18;;;;;;;52.90;8.55;;;;;;;18.19;37.98;99152.72;1761001;81;21164;-80
2022/03/31 13:44:25;;;;;;;60.50;8.80;;;;;;;18.16;37.93;99144.95;1759708;81;21271;-80
2022/03/31 13:47:31;;;;;;;90.60;11.03;;;;;;;18.14;37.93;99155.41;1759583;81;21238;-81
2022/03/31 13:50:40;;;;;;;73.47;8.50;;;;;;;18.12;38.32;99147.37;1761169;81;21724;-80
2022/03/31 13:53:48;;;;;;;71.67;10.53;;;;;;;18.08;38.18;99140.67;1761091;81;21223;-80
2022/03/31 13:56:57;;;;;;;63.85;9.18;;;;;;;18.05;38.78;99143.94;1759632;81;21239;-80
2022/03/31 14:03:27;;;;;;;66.72;9.43;;;;;;;17.99;37.63;99139.97;1768913;79;21198;-80
2022/03/31 14:06:33;;;;;;;43.87;7.25;;;;;;;17.97;37.14;99144.90;1775416;81;21185;-80
2022/03/31 14:09:39;;;;;;;57.85;7.10;;;;;;;17.93;37.37;99143.76;1773635;81;21194;-80
2022/03/31 14:12:45;;;;;;;43.33;7.95;;;;;;;17.85;37.69;99137.55;1775196;81;21182;-80
2022/03/31 14:15:51;;;;;;;46.75;7.20;;;;;;;17.79;37.18;99155.70;1773946;81;21170;-80
2022/03/31 14:18:58;;;;;;;46.95;7.42;;;;;;;17.69;37.40;99139.75;1773859;81;21190;-80
2022/03/31 14:22:04;;;;;;;51.63;8.40;;;;;;;17.58;37.29;99149.77;1773896;80;21195;-80
2022/03/31 14:25:11;;;;;;;51.53;8.95;;;;;;;17.48;37.80;99150.98;1773788;81;21222;-80
2022/03/31 14:28:17;;;;;;;65.85;8.25;;;;;;;17.37;38.35;99159.64;1775066;81;21214;-80
2022/03/31 14:31:26;;;;;;;66.12;9.30;;;;;;;17.27;38.77;99158.08;1775157;81;21238;-81
2022/03/31 14:34:33;;;;;;;102.90;11.88;;;;;;;17.16;38.95;99162.27;1775033;81;21187;-80